Time;durP1;ratioP1;P1;durP2;ratioP2;P2;SDS_P1;SDS_P2;PMS_P1;PMS_P2;Temp;Humidity;BMP_temperature;BMP_pressure;BME280_temperature;BME280_humidity;BME280_pressure;Samples;Min_cycle;Max_cycle;Signal;HPM_P1;HPM_P2
2023/10/22 00:01:16;;;;;;;;;;;;;;;18.07;56.78;98163.53;10288949;28;915;-70
2023/10/22 00:06:11;;;;;;;;;;;;;;;18.05;56.92;98161.03;10288861;28;864;-71
2023/10/22 00:11:07;;;;;;;;;;;;;;;18.06;56.80;98175.88;10288431;28;951;-71
2023/10/22 00:16:03;;;;;;;;;;;;;;;18.03;56.65;98176.09;10288968;28;1901;-71
2023/10/22 00:20:59;;;;;;;;;;;;;;;18.03;56.96;98186.66;10288904;28;852;-71
2023/10/22 00:25:55;;;;;;;;;;;;;;;18.02;56.73;98189.38;10289321;28;841;-70
2023/10/22 00:30:51;;;;;;;;;;;;;;;18.04;57.02;98187.50;10287392;28;996;-71
2023/10/22 00:35:47;;;;;;;;;;;;;;;18.01;56.96;98204.34;10287639;28;1894;-71
2023/10/22 00:40:42;;;;;;;;;;;;;;;18.00;56.67;98207.97;10286811;28;758;-71
2023/10/22 00:45:38;;;;;;;;;;;;;;;17.96;56.81;98201.19;10287925;28;912;-71
2023/10/22 00:50:34;;;;;;;;;;;;;;;17.96;56.96;98203.81;10287317;28;1433;-71
2023/10/22 00:55:30;;;;;;;;;;;;;;;17.96;56.78;98202.03;10286806;28;1914;-71
2023/10/22 01:00:26;;;;;;;;;;;;;;;17.96;57.04;98195.91;10287362;28;971;-71
2023/10/22 01:05:22;;;;;;;;;;;;;;;17.95;57.04;98204.78;10286110;28;802;-70
2023/10/22 01:10:18;;;;;;;;;;;;;;;17.93;56.75;98194.34;10286288;28;791;-70
2023/10/22 01:15:14;;;;;;;;;;;;;;;17.93;57.02;98202.25;10286065;28;1894;-70
2023/10/22 01:20:09;;;;;;;;;;;;;;;17.93;56.87;98204.03;10286186;28;1015;-71
2023/10/22 01:25:05;;;;;;;;;;;;;;;17.91;56.81;98212.03;10286483;28;967;-71
2023/10/22 01:30:01;;;;;;;;;;;;;;;17.91;56.83;98213.84;10285741;28;869;-71
2023/10/22 01:34:57;;;;;;;;;;;;;;;17.90;57.03;98213.00;10286683;28;1965;-70
2023/10/22 01:39:54;;;;;;;;;;;;;;;17.89;56.99;98215.72;10285336;28;894;-71
2023/10/22 01:44:50;;;;;;;;;;;;;;;17.89;56.99;98221.00;10285072;28;949;-71
2023/10/22 01:49:46;;;;;;;;;;;;;;;17.87;56.86;98217.66;10285336;28;1125;-71
2023/10/22 01:54:42;;;;;;;;;;;;;;;17.87;56.74;98226.41;10284437;28;1906;-71
2023/10/22 01:59:38;;;;;;;;;;;;;;;17.87;56.78;98229.03;10284921;28;971;-71
2023/10/22 02:04:34;;;;;;;;;;;;;;;17.86;57.15;98237.03;10284647;28;880;-71
2023/10/22 02:09:30;;;;;;;;;;;;;;;17.86;56.92;98237.88;10284509;28;891;-71
2023/10/22 02:14:26;;;;;;;;;;;;;;;17.85;57.05;98251.16;10284307;28;1957;-71
2023/10/22 02:19:22;;;;;;;;;;;;;;;17.84;57.15;98250.34;10285003;28;975;-71
2023/10/22 02:24:18;;;;;;;;;;;;;;;17.82;56.92;98239.03;10284375;28;809;-71
2023/10/22 02:29:14;;;;;;;;;;;;;;;17.83;57.11;98250.41;10284238;28;798;-71
2023/10/22 02:34:10;;;;;;;;;;;;;;;17.81;57.05;98253.16;10283471;28;1949;-71
2023/10/22 02:39:08;;;;;;;;;;;;;;;17.80;56.94;98263.81;10284779;28;848;-71
2023/10/22 02:44:04;;;;;;;;;;;;;;;17.80;57.09;98263.81;10283788;28;929;-71
2023/10/22 02:49:00;;;;;;;;;;;;;;;17.79;57.00;98284.06;10284457;28;1169;-70
2023/10/22 02:53:56;;;;;;;;;;;;;;;17.79;56.97;98277.88;10266414;28;1943;-71
2023/10/22 02:58:52;;;;;;;;;;;;;;;17.77;57.03;98285.06;10283582;28;907;-71
2023/10/22 03:03:48;;;;;;;;;;;;;;;17.77;57.04;98283.28;10283897;28;864;-71
2023/10/22 03:08:44;;;;;;;;;;;;;;;17.77;57.15;98279.81;10291041;28;942;-71
2023/10/22 03:13:40;;;;;;;;;;;;;;;17.75;56.96;98293.91;10290961;28;1890;-71
2023/10/22 03:18:36;;;;;;;;;;;;;;;17.74;57.10;98292.22;10291006;28;979;-71
2023/10/22 03:23:32;;;;;;;;;;;;;;;17.74;56.94;98310.69;10291195;28;914;-71
2023/10/22 03:28:29;;;;;;;;;;;;;;;17.74;56.95;98313.31;10290373;28;787;-71
2023/10/22 03:33:25;;;;;;;;;;;;;;;17.73;56.93;98311.59;10290641;28;1949;-71
2023/10/22 03:38:21;;;;;;;;;;;;;;;17.72;57.08;98320.47;10290593;28;869;-71
2023/10/22 03:43:16;;;;;;;;;;;;;;;17.72;57.11;98332.81;10289425;28;901;-71
2023/10/22 03:48:13;;;;;;;;;;;;;;;17.71;56.99;98328.47;10289704;28;959;-71
2023/10/22 03:53:09;;;;;;;;;;;;;;;17.71;57.14;98339.00;10289764;28;1910;-71
2023/10/22 03:58:05;;;;;;;;;;;;;;;17.71;57.13;98344.28;10289203;28;823;-71
2023/10/22 04:03:01;;;;;;;;;;;;;;;17.68;57.30;98353.25;10289563;28;989;-71
2023/10/22 04:07:57;;;;;;;;;;;;;;;17.68;57.08;98355.88;10289546;28;957;-71
2023/10/22 04:12:53;;;;;;;;;;;;;;;17.69;57.09;98360.19;10288533;28;1893;-71
2023/10/22 04:17:49;;;;;;;;;;;;;;;17.73;56.79;98358.19;10288805;28;837;-71
2023/10/22 04:22:45;;;;;;;;;;;;;;;17.80;56.93;98374.50;10288471;28;921;-71
2023/10/22 04:27:41;;;;;;;;;;;;;;;17.84;56.74;98375.97;10288108;28;769;-71
2023/10/22 04:32:37;;;;;;;;;;;;;;;17.87;56.72;98387.19;10287899;28;1961;-71
2023/10/22 04:37:32;;;;;;;;;;;;;;;17.91;56.54;98382.56;10288281;28;783;-71
2023/10/22 04:42:28;;;;;;;;;;;;;;;17.93;56.35;98378.03;10287901;28;886;-71
2023/10/22 04:47:24;;;;;;;;;;;;;;;17.97;56.31;98382.13;10286824;28;952;-71
2023/10/22 04:52:33;;;;;;;;;;;;;;;17.99;56.45;98392.59;10287296;28;1972;-71
2023/10/22 04:57:29;;;;;;;;;;;;;;;18.02;56.28;98398.50;10286859;28;950;-70
2023/10/22 05:02:25;;;;;;;;;;;;;;;18.07;56.20;98414.03;10287318;28;802;-71
2023/10/22 05:07:21;;;;;;;;;;;;;;;18.08;56.23;98413.94;10286022;28;933;-71
2023/10/22 05:12:17;;;;;;;;;;;;;;;18.14;56.00;98426.72;10285660;28;1890;-71
2023/10/22 05:17:13;;;;;;;;;;;;;;;18.17;56.02;98430.94;10287592;28;1046;-71
2023/10/22 05:22:09;;;;;;;;;;;;;;;18.17;55.96;98434.41;10285960;28;891;-71
2023/10/22 05:27:05;;;;;;;;;;;;;;;18.23;55.98;98448.16;10285086;28;936;-74
2023/10/22 05:32:01;;;;;;;;;;;;;;;18.26;55.82;98446.16;10285704;28;862;-70
2023/10/22 05:36:56;;;;;;;;;;;;;;;18.29;56.00;98451.25;10284804;28;1890;-71
2023/10/22 05:41:52;;;;;;;;;;;;;;;18.31;55.83;98454.63;10285262;28;828;-71
2023/10/22 05:46:49;;;;;;;;;;;;;;;18.33;55.70;98467.69;10285211;28;825;-71
2023/10/22 05:51:44;;;;;;;;;;;;;;;18.34;55.79;98464.13;10284820;28;1165;-71
2023/10/22 05:56:40;;;;;;;;;;;;;;;18.35;55.73;98476.38;10285475;28;1914;-71
2023/10/22 06:01:38;;;;;;;;;;;;;;;18.37;55.74;98477.94;10285745;28;791;-71
2023/10/22 06:06:34;;;;;;;;;;;;;;;18.39;55.87;98488.38;10285223;28;894;-70
2023/10/22 06:11:30;;;;;;;;;;;;;;;18.38;55.71;98502.53;10283925;28;1023;-71
2023/10/22 06:16:26;;;;;;;;;;;;;;;18.37;55.70;98516.69;10283852;28;1910;-71
2023/10/22 06:21:22;;;;;;;;;;;;;;;18.41;55.70;98539.25;10284410;28;761;-71
2023/10/22 06:26:18;;;;;;;;;;;;;;;18.42;55.77;98534.81;10284309;28;869;-71
2023/10/22 06:31:14;;;;;;;;;;;;;;;18.44;56.13;98564.59;10284222;28;937;-71
2023/10/22 06:36:10;;;;;;;;;;;;;;;18.43;56.32;98574.31;10281286;28;1901;-71
2023/10/22 06:41:06;;;;;;;;;;;;;;;18.45;56.10;98577.72;10287798;28;805;-70
2023/10/22 06:46:02;;;;;;;;;;;;;;;18.45;56.36;98585.63;10292028;28;844;-70
2023/10/22 06:50:58;;;;;;;;;;;;;;;18.43;56.29;98584.88;10291799;28;1327;-70
2023/10/22 06:55:54;;;;;;;;;;;;;;;18.42;56.44;98591.09;10291644;28;1976;-70
2023/10/22 07:00:49;;;;;;;;;;;;;;;18.43;56.11;98578.75;10291271;28;763;-70
2023/10/22 07:05:45;;;;;;;;;;;;;;;18.45;56.00;98585.63;10290670;28;944;-71
2023/10/22 07:10:41;;;;;;;;;;;;;;;18.43;56.28;98579.59;10290865;28;832;-70
2023/10/22 07:15:37;;;;;;;;;;;;;;;18.45;56.28;98582.16;10290813;28;1902;-72
2023/10/22 07:20:33;;;;;;;;;;;;;;;18.46;56.23;98595.22;10290474;28;865;-71
2023/10/22 07:25:29;;;;;;;;;;;;;;;18.48;55.98;98603.06;10289450;28;924;-70
2023/10/22 07:30:25;;;;;;;;;;;;;;;18.44;55.76;98602.38;10290126;28;901;-71
2023/10/22 07:35:21;;;;;;;;;;;;;;;18.46;56.15;98610.22;10289118;28;1956;-71
2023/10/22 07:40:20;;;;;;;;;;;;;;;18.48;55.96;98625.00;10290347;28;845;-70
2023/10/22 07:45:16;;;;;;;;;;;;;;;18.49;55.85;98631.13;10289555;28;786;-71
2023/10/22 07:50:13;;;;;;;;;;;;;;;18.47;55.87;98633.00;10289596;28;1425;-70
2023/10/22 07:55:09;;;;;;;;;;;;;;;18.49;55.84;98631.97;10287888;28;1906;-71
2023/10/22 08:00:06;;;;;;;;;;;;;;;18.47;55.76;98647.06;10289448;28;830;-68
2023/10/22 08:05:02;;;;;;;;;;;;;;;18.42;56.00;98662.34;10288893;28;782;-73
2023/10/22 08:09:58;;;;;;;;;;;;;;;18.37;56.04;98667.06;10289412;28;873;-75
2023/10/22 08:14:54;;;;;;;;;;;;;;;18.37;56.08;98674.97;10287886;28;1894;-75
2023/10/22 08:19:50;;;;;;;;;;;;;;;18.36;56.06;98687.28;10288379;28;822;-74
2023/10/22 08:24:45;;;;;;;;;;;;;;;18.35;56.01;98690.88;10288992;28;849;-75
2023/10/22 08:29:41;;;;;;;;;;;;;;;18.36;56.13;98699.66;10289275;28;932;-74
2023/10/22 08:34:37;;;;;;;;;;;;;;;18.36;56.06;98704.91;10287901;28;1898;-75
2023/10/22 08:39:33;;;;;;;;;;;;;;;18.36;55.85;98716.31;10287691;28;864;-76
2023/10/22 08:44:30;;;;;;;;;;;;;;;18.35;55.87;98716.44;10287084;28;881;-75
2023/10/22 08:49:25;;;;;;;;;;;;;;;18.34;56.13;98734.06;10287046;28;1191;-75
2023/10/22 08:54:22;;;;;;;;;;;;;;;18.34;56.01;98744.59;10287100;28;1972;-75
2023/10/22 08:59:18;;;;;;;;;;;;;;;18.34;55.91;98756.94;10287213;28;848;-70
2023/10/22 09:04:14;;;;;;;;;;;;;;;18.44;55.69;98758.06;10286861;28;877;-72
2023/10/22 09:09:10;;;;;;;;;;;;;;;18.49;55.66;98763.91;10286576;28;760;-71
2023/10/22 09:14:06;;;;;;;;;;;;;;;18.44;55.88;98776.53;10286250;28;1947;-75
2023/10/22 09:19:02;;;;;;;;;;;;;;;18.37;56.22;98778.72;10287381;28;919;-74
2023/10/22 09:23:57;;;;;;;;;;;;;;;18.35;56.21;98774.47;10285963;28;962;-75
2023/10/22 09:28:53;;;;;;;;;;;;;;;18.33;56.10;98781.63;10285850;28;767;-75
2023/10/22 09:33:49;;;;;;;;;;;;;;;18.31;56.16;98786.13;10285624;28;1894;-74
2023/10/22 09:38:46;;;;;;;;;;;;;;;18.27;56.23;98795.19;10286083;28;991;-74
2023/10/22 09:43:42;;;;;;;;;;;;;;;18.24;56.36;98798.84;10284707;28;945;-74
2023/10/22 09:48:38;;;;;;;;;;;;;;;18.22;56.03;98803.38;10285285;28;955;-74
2023/10/22 09:53:33;;;;;;;;;;;;;;;18.20;56.15;98801.78;10281246;28;2192;-75
2023/10/22 09:58:30;;;;;;;;;;;;;;;18.18;56.37;98807.13;10285111;28;2740;-75
2023/10/22 10:03:26;;;;;;;;;;;;;;;18.16;56.35;98806.38;10285373;28;951;-74
2023/10/22 10:08:21;;;;;;;;;;;;;;;18.15;56.45;98825.78;10284041;28;858;-75
2023/10/22 10:13:17;;;;;;;;;;;;;;;18.15;56.10;98833.69;10282806;28;2387;-75
2023/10/22 10:18:13;;;;;;;;;;;;;;;18.13;56.21;98815.34;10284993;28;833;-74
2023/10/22 10:23:09;;;;;;;;;;;;;;;18.11;56.12;98834.81;10284833;28;802;-74
2023/10/22 10:28:05;;;;;;;;;;;;;;;18.12;56.26;98839.16;10279328;28;3062;-74
2023/10/22 10:33:01;;;;;;;;;;;;;;;18.11;56.35;98843.56;10300126;28;2846;-73
2023/10/22 10:37:57;;;;;;;;;;;;;;;18.10;56.13;98844.53;10311451;28;1120;-75
2023/10/22 10:42:53;;;;;;;;;;;;;;;18.18;56.25;98839.66;10309489;28;1419;-73
2023/10/22 10:47:49;;;;;;;;;;;;;;;18.18;56.30;98844.03;10309759;28;2368;-73
2023/10/22 10:52:45;;;;;;;;;;;;;;;18.16;56.15;98852.06;10304846;28;3270;-77
2023/10/22 10:57:41;;;;;;;;;;;;;;;18.17;56.14;98853.75;10271183;28;3104;-73
2023/10/22 11:02:37;;;;;;;;;;;;;;;18.24;56.07;98864.81;10277257;28;3136;-73
2023/10/22 11:07:33;;;;;;;;;;;;;;;18.23;55.89;98851.69;10282708;28;3116;-72
2023/10/22 11:12:29;;;;;;;;;;;;;;;18.25;55.81;98852.47;10301983;28;2411;-73
2023/10/22 11:17:26;;;;;;;;;;;;;;;18.28;55.78;98857.53;10293592;28;1153;-73
2023/10/22 11:22:22;;;;;;;;;;;;;;;18.29;55.83;98857.47;10306079;28;2516;-73
2023/10/22 11:27:18;;;;;;;;;;;;;;;18.27;55.72;98866.41;10314193;28;1168;-73
2023/10/22 11:32:14;;;;;;;;;;;;;;;18.27;55.67;98872.53;10316881;28;1199;-72
2023/10/22 11:37:10;;;;;;;;;;;;;;;18.29;55.79;98868.03;10309216;28;1929;-72
2023/10/22 11:42:07;;;;;;;;;;;;;;;18.29;55.78;98872.44;10300990;28;1137;-73
2023/10/22 11:47:03;;;;;;;;;;;;;;;18.31;55.67;98875.81;10308633;28;2520;-74
2023/10/22 11:51:59;;;;;;;;;;;;;;;18.33;55.69;98887.16;10286804;28;2391;-73
2023/10/22 11:56:55;;;;;;;;;;;;;;;18.32;55.57;98886.31;10270305;28;3165;-73
2023/10/22 12:01:52;;;;;;;;;;;;;;;18.31;55.85;98886.38;10283493;28;2534;-73
2023/10/22 12:06:48;;;;;;;;;;;;;;;18.33;55.57;98889.78;10288613;28;979;-72
2023/10/22 12:11:44;;;;;;;;;;;;;;;18.32;55.42;98896.00;10287960;28;865;-73
2023/10/22 12:16:40;;;;;;;;;;;;;;;18.33;55.68;98908.25;10288152;28;1980;-72
2023/10/22 12:21:35;;;;;;;;;;;;;;;18.30;55.80;98909.28;10288381;28;833;-73
2023/10/22 12:26:32;;;;;;;;;;;;;;;18.30;55.79;98911.91;10287946;28;886;-71
2023/10/22 12:31:28;;;;;;;;;;;;;;;18.44;55.33;98908.47;10288149;28;851;-72
2023/10/22 12:36:24;;;;;;;;;;;;;;;18.50;55.79;98905.47;10287067;28;1894;-72
2023/10/22 12:41:19;;;;;;;;;;;;;;;18.54;56.09;98911.41;10287399;28;806;-75
2023/10/22 12:46:16;;;;;;;;;;;;;;;18.52;56.09;98908.88;10287545;28;813;-73
2023/10/22 12:51:12;;;;;;;;;;;;;;;18.56;56.26;98906.88;10287135;28;1196;-72
2023/10/22 12:56:08;;;;;;;;;;;;;;;18.54;56.41;98906.97;10286712;28;1906;-71
2023/10/22 13:01:04;;;;;;;;;;;;;;;18.53;56.52;98912.34;10286804;28;806;-71
2023/10/22 13:06:00;;;;;;;;;;;;;;;18.58;56.44;98926.97;10286923;28;1205;-71
2023/10/22 13:10:56;;;;;;;;;;;;;;;18.61;56.61;98941.78;10285690;28;909;-70
2023/10/22 13:15:52;;;;;;;;;;;;;;;18.65;56.82;98953.00;10286575;28;1957;-72
2023/10/22 13:20:48;;;;;;;;;;;;;;;18.58;56.97;98956.00;10285462;28;950;-68
2023/10/22 13:25:44;;;;;;;;;;;;;;;18.56;56.60;98968.44;10285689;28;772;-71
2023/10/22 13:30:40;;;;;;;;;;;;;;;18.59;56.66;98970.88;10284656;28;995;-71
2023/10/22 13:35:36;;;;;;;;;;;;;;;18.61;56.44;98966.38;10285509;28;1928;-68
2023/10/22 13:40:32;;;;;;;;;;;;;;;18.61;56.49;98971.66;10285627;28;817;-68
2023/10/22 13:45:28;;;;;;;;;;;;;;;18.67;56.00;98972.22;10285123;28;822;-68
2023/10/22 13:50:24;;;;;;;;;;;;;;;18.73;55.68;98971.84;10283712;28;1323;-68
2023/10/22 13:55:20;;;;;;;;;;;;;;;18.69;55.75;98978.28;10284732;28;1914;-68
2023/10/22 14:00:17;;;;;;;;;;;;;;;18.75;55.65;98984.06;10284466;28;867;-69
2023/10/22 14:05:13;;;;;;;;;;;;;;;18.73;55.86;98993.84;10284894;28;1207;-71
2023/10/22 14:10:09;;;;;;;;;;;;;;;18.70;56.11;99006.38;10284477;28;907;-71
2023/10/22 14:15:07;;;;;;;;;;;;;;;18.69;56.14;99012.59;10284338;28;1957;-71
2023/10/22 14:20:03;;;;;;;;;;;;;;;18.71;56.23;99005.44;10285080;28;806;-70
2023/10/22 14:24:59;;;;;;;;;;;;;;;18.70;56.08;99009.84;10284368;28;922;-70
2023/10/22 14:29:55;;;;;;;;;;;;;;;18.68;56.28;99008.25;10284365;28;877;-70
2023/10/22 14:34:51;;;;;;;;;;;;;;;18.66;56.32;99008.34;10283550;28;1969;-70
2023/10/22 14:39:47;;;;;;;;;;;;;;;18.66;56.33;99012.78;10283713;28;871;-70
2023/10/22 14:44:43;;;;;;;;;;;;;;;18.68;56.01;99024.06;10284626;28;881;-70
2023/10/22 14:49:38;;;;;;;;;;;;;;;18.69;56.33;99021.34;10292057;28;1349;-70
2023/10/22 14:54:34;;;;;;;;;;;;;;;18.68;56.12;99024.06;10324597;28;1934;-70
2023/10/22 14:59:30;;;;;;;;;;;;;;;18.64;56.37;99026.06;10323941;28;829;-70
2023/10/22 15:04:26;;;;;;;;;;;;;;;18.63;56.37;99029.66;10331392;28;877;-70
2023/10/22 15:09:22;;;;;;;;;;;;;;;18.66;56.24;99029.47;10331877;28;952;-70
2023/10/22 15:14:18;;;;;;;;;;;;;;;18.65;56.17;99027.75;10331689;28;2014;-70
2023/10/22 15:19:14;;;;;;;;;;;;;;;18.65;56.22;99033.03;10332135;28;912;-70
2023/10/22 15:24:10;;;;;;;;;;;;;;;18.65;56.12;99042.72;10331399;28;773;-70
2023/10/22 15:29:06;;;;;;;;;;;;;;;18.62;56.23;99049.03;10331754;28;798;-70
2023/10/22 15:34:01;;;;;;;;;;;;;;;18.65;56.25;99048.84;10330913;28;1914;-70
2023/10/22 15:38:57;;;;;;;;;;;;;;;18.66;56.11;99049.75;10331439;28;830;-70
2023/10/22 15:43:53;;;;;;;;;;;;;;;18.65;56.27;99058.56;10331229;28;822;-70
2023/10/22 15:48:49;;;;;;;;;;;;;;;18.61;56.20;99061.41;10330691;28;1342;-70
2023/10/22 15:53:45;;;;;;;;;;;;;;;18.61;56.29;99065.84;10330287;28;1910;-70
2023/10/22 15:58:41;;;;;;;;;;;;;;;18.60;56.23;99070.25;10326784;28;3169;-72
2023/10/22 16:03:38;;;;;;;;;;;;;;;18.61;56.31;99064.03;10324309;28;2622;-72
2023/10/22 16:08:34;;;;;;;;;;;;;;;18.65;56.50;99058.56;10323984;28;2935;-72
2023/10/22 16:13:30;;;;;;;;;;;;;;;18.65;56.41;99071.78;10326656;28;1890;-72
2023/10/22 16:18:26;;;;;;;;;;;;;;;18.62;56.76;99072.81;10327988;28;2431;-71
2023/10/22 16:23:22;;;;;;;;;;;;;;;18.65;56.69;99082.31;10326148;28;1533;-71
2023/10/22 16:28:17;;;;;;;;;;;;;;;18.67;56.70;99088.38;10327699;28;1037;-71
2023/10/22 16:33:14;;;;;;;;;;;;;;;18.65;56.82;99083.19;10326225;28;1875;-75
2023/10/22 16:38:10;;;;;;;;;;;;;;;18.65;56.75;99100.81;10327951;28;1245;-71
2023/10/22 16:43:06;;;;;;;;;;;;;;;18.59;56.76;99105.50;10327593;28;834;-70
2023/10/22 16:48:02;;;;;;;;;;;;;;;18.63;56.96;99106.19;10328084;28;837;-73
2023/10/22 16:52:58;;;;;;;;;;;;;;;18.66;56.73;99119.22;10329206;28;1976;-71
2023/10/22 16:57:54;;;;;;;;;;;;;;;18.66;56.79;99121.84;10327669;28;821;-71
2023/10/22 17:02:50;;;;;;;;;;;;;;;18.65;56.84;99133.31;10326934;28;912;-72
2023/10/22 17:07:46;;;;;;;;;;;;;;;18.64;56.93;99130.78;10326745;28;913;-71
2023/10/22 17:12:42;;;;;;;;;;;;;;;18.65;56.91;99143.03;10327284;28;2055;-71
2023/10/22 17:17:38;;;;;;;;;;;;;;;18.67;56.90;99144.66;10326900;28;933;-72
2023/10/22 17:22:34;;;;;;;;;;;;;;;18.66;57.05;99150.03;10326421;28;769;-71
2023/10/22 17:27:31;;;;;;;;;;;;;;;18.64;56.98;99154.56;10326556;28;785;-71
2023/10/22 17:32:27;;;;;;;;;;;;;;;18.64;56.85;99162.47;10326390;28;775;-73
2023/10/22 17:37:22;;;;;;;;;;;;;;;18.59;56.95;99160.94;10326135;28;1890;-72
2023/10/22 17:42:18;;;;;;;;;;;;;;;18.62;56.95;99173.94;10327275;28;838;-72
2023/10/22 17:47:14;;;;;;;;;;;;;;;18.63;56.78;99169.53;10325452;28;909;-72
2023/10/22 17:52:10;;;;;;;;;;;;;;;18.61;56.72;99177.53;10325317;28;1207;-72
2023/10/22 17:57:06;;;;;;;;;;;;;;;18.61;56.69;99185.44;10325679;28;1955;-73
2023/10/22 18:02:02;;;;;;;;;;;;;;;18.62;56.74;99181.88;10326189;28;884;-73
2023/10/22 18:06:58;;;;;;;;;;;;;;;18.65;56.77;99194.03;10324927;28;910;-73
2023/10/22 18:11:54;;;;;;;;;;;;;;;18.67;56.57;99193.97;10325467;28;750;-71
2023/10/22 18:16:50;;;;;;;;;;;;;;;18.65;56.56;99201.97;10325903;28;1894;-72
2023/10/22 18:21:45;;;;;;;;;;;;;;;18.62;56.84;99202.97;10325262;28;770;-71
2023/10/22 18:26:41;;;;;;;;;;;;;;;18.69;56.58;99202.66;10325746;28;794;-70
2023/10/22 18:31:37;;;;;;;;;;;;;;;18.70;56.50;99205.19;10325031;28;911;-74
2023/10/22 18:36:33;;;;;;;;;;;;;;;18.67;56.63;99215.09;10328283;28;1949;-70
2023/10/22 18:41:29;;;;;;;;;;;;;;;18.69;56.55;99218.50;10333219;28;847;-72
2023/10/22 18:46:25;;;;;;;;;;;;;;;18.67;56.74;99225.66;10332869;28;857;-69
2023/10/22 18:51:21;;;;;;;;;;;;;;;18.72;56.77;99234.16;10333284;28;1325;-71
2023/10/22 18:56:17;;;;;;;;;;;;;;;18.72;57.00;99229.72;10332308;28;1914;-72
2023/10/22 19:01:23;;;;;;;;;;;;;;;18.71;57.23;99232.47;10332324;28;909;-71
2023/10/22 19:06:19;;;;;;;;;;;;;;;18.71;57.67;99232.47;10332035;28;934;-70
2023/10/22 19:11:15;;;;;;;;;;;;;;;18.73;57.49;99241.13;10332529;28;876;-71
2023/10/22 19:16:11;;;;;;;;;;;;;;;18.75;57.42;99247.22;10331624;28;1889;-71
2023/10/22 19:21:07;;;;;;;;;;;;;;;18.75;57.42;99260.44;10331549;28;774;-71
2023/10/22 19:26:03;;;;;;;;;;;;;;;18.77;57.45;99263.84;10332379;28;837;-71
2023/10/22 19:30:59;;;;;;;;;;;;;;;18.74;57.63;99270.09;10330553;28;1053;-71
2023/10/22 19:35:55;;;;;;;;;;;;;;;18.73;57.65;99267.53;10331429;28;1901;-71
2023/10/22 19:40:51;;;;;;;;;;;;;;;18.71;57.67;99270.28;10330859;28;858;-71
2023/10/22 19:45:46;;;;;;;;;;;;;;;18.69;57.58;99279.22;10330259;28;778;-71
2023/10/22 19:50:42;;;;;;;;;;;;;;;18.67;57.87;99292.50;10329938;28;1282;-71
2023/10/22 19:55:38;;;;;;;;;;;;;;;18.61;57.77;99296.31;10329954;28;1906;-71
2023/10/22 20:00:34;;;;;;;;;;;;;;;18.57;57.87;99304.47;10330754;28;889;-71
2023/10/22 20:05:30;;;;;;;;;;;;;;;18.56;57.86;99295.72;10329888;28;861;-72
2023/10/22 20:10:28;;;;;;;;;;;;;;;18.53;57.74;99298.53;10329792;28;879;-71
2023/10/22 20:15:24;;;;;;;;;;;;;;;18.51;57.65;99310.94;10330154;28;1890;-71
2023/10/22 20:20:20;;;;;;;;;;;;;;;18.49;57.67;99312.81;10328565;28;1281;-71
2023/10/22 20:25:16;;;;;;;;;;;;;;;18.46;57.68;99318.25;10328655;28;1091;-71
2023/10/22 20:30:12;;;;;;;;;;;;;;;18.46;57.83;99317.41;10329271;28;790;-71
2023/10/22 20:35:08;;;;;;;;;;;;;;;18.44;57.89;99324.53;10328804;28;1894;-71
2023/10/22 20:40:04;;;;;;;;;;;;;;;18.42;57.82;99331.69;10328520;28;906;-71
2023/10/22 20:45:01;;;;;;;;;;;;;;;18.39;57.92;99324.78;10328200;28;782;-71
2023/10/22 20:49:58;;;;;;;;;;;;;;;18.36;57.83;99323.16;10327739;28;1227;-71
2023/10/22 20:54:54;;;;;;;;;;;;;;;18.35;58.04;99331.16;10327720;28;1980;-80
2023/10/22 20:59:50;;;;;;;;;;;;;;;18.27;58.23;99328.91;10327876;28;917;-82
2023/10/22 21:04:46;;;;;;;;;;;;;;;18.24;58.27;99331.72;10327513;28;1035;-82
2023/10/22 21:09:42;;;;;;;;;;;;;;;18.19;58.10;99331.09;10327506;28;917;-81
2023/10/22 21:14:38;;;;;;;;;;;;;;;18.17;58.27;99327.69;10327842;28;1951;-81
2023/10/22 21:19:34;;;;;;;;;;;;;;;18.16;58.00;99336.53;10327577;28;911;-80
2023/10/22 21:24:29;;;;;;;;;;;;;;;18.14;57.76;99344.53;10326797;28;855;-78
2023/10/22 21:29:25;;;;;;;;;;;;;;;18.15;58.02;99335.66;10325859;28;871;-80
2023/10/22 21:34:21;;;;;;;;;;;;;;;18.13;58.09;99334.91;10326378;28;1894;-79
2023/10/22 21:39:17;;;;;;;;;;;;;;;18.12;57.85;99343.75;10325930;28;878;-79
2023/10/22 21:44:13;;;;;;;;;;;;;;;18.10;57.97;99339.47;10325119;28;782;-80
2023/10/22 21:49:09;;;;;;;;;;;;;;;18.07;57.97;99340.47;10325430;28;1126;-80
2023/10/22 21:54:05;;;;;;;;;;;;;;;18.05;58.06;99337.09;10325896;28;1918;-79
2023/10/22 21:59:01;;;;;;;;;;;;;;;18.02;58.35;99339.00;10326428;28;901;-79
2023/10/22 22:03:57;;;;;;;;;;;;;;;18.00;58.18;99333.84;10325638;28;770;-79
2023/10/22 22:08:53;;;;;;;;;;;;;;;17.98;58.28;99342.75;10324508;28;1322;-79
2023/10/22 22:13:48;;;;;;;;;;;;;;;17.96;58.29;99346.31;10324752;28;1963;-79
2023/10/22 22:18:44;;;;;;;;;;;;;;;17.94;58.45;99342.88;10324658;28;837;-80
2023/10/22 22:23:40;;;;;;;;;;;;;;;17.92;58.35;99350.03;10325820;28;857;-78
2023/10/22 22:28:38;;;;;;;;;;;;;;;17.91;58.29;99350.94;10324599;28;901;-79
2023/10/22 22:33:34;;;;;;;;;;;;;;;17.89;58.45;99349.31;10325645;28;1890;-79
2023/10/22 22:38:30;;;;;;;;;;;;;;;17.87;58.28;99357.31;10324613;28;826;-78
2023/10/22 22:43:26;;;;;;;;;;;;;;;17.86;58.23;99354.75;10324952;28;928;-80
2023/10/22 22:48:22;;;;;;;;;;;;;;;17.84;58.40;99356.59;10324754;28;869;-78
2023/10/22 22:53:18;;;;;;;;;;;;;;;17.84;58.51;99360.13;10324301;28;1925;-80
2023/10/22 22:58:14;;;;;;;;;;;;;;;17.83;58.60;99362.81;10323885;28;929;-80
2023/10/22 23:03:10;;;;;;;;;;;;;;;17.81;58.68;99362.88;10325210;28;849;-79
2023/10/22 23:08:06;;;;;;;;;;;;;;;17.81;58.68;99362.88;10323783;28;842;-79
2023/10/22 23:13:02;;;;;;;;;;;;;;;17.80;58.67;99363.81;10324774;28;1893;-81
2023/10/22 23:17:58;;;;;;;;;;;;;;;17.79;58.54;99369.13;10325044;28;924;-80
2023/10/22 23:22:54;;;;;;;;;;;;;;;17.78;58.71;99362.16;10327438;28;876;-78
2023/10/22 23:27:50;;;;;;;;;;;;;;;17.76;58.70;99367.50;10332012;28;885;-78
2023/10/22 23:32:45;;;;;;;;;;;;;;;17.76;58.52;99367.50;10331808;28;885;-79
2023/10/22 23:37:41;;;;;;;;;;;;;;;17.75;58.87;99374.56;10331012;28;758;-78
2023/10/22 23:42:37;;;;;;;;;;;;;;;17.74;58.77;99383.41;10330219;28;837;-72
2023/10/22 23:47:33;;;;;;;;;;;;;;;17.72;58.94;99379.13;10330960;28;995;-74
2023/10/22 23:52:29;;;;;;;;;;;;;;;17.71;58.82;99382.69;10322694;28;1176;-75
2023/10/22 23:57:25;;;;;;;;;;;;;;;17.70;58.64;99391.53;10330836;28;1973;-74
